CEP2 weather

Calgary (Bow Crow) Heliport
Calgary, Alberta, Canada

Public forecast

Using degrees Celsius for public forecast. Weather courtesy of forecast.io.

Closest aviation weather report (METAR) to Calgary (Bow Crow) Heliport

Closest report is Calgary / Springbank Airport, 6.0 nm (11.1 km) W. Retrieved 2020/01/21 01:00 UTC (37 minutes ago):

CYBW 210100Z AUTO 27008KT 9SM SCT200 BKN230 05/M05 A2974 RMK SLP110

Closest aviation forecast (TAF) to Calgary (Bow Crow) Heliport

Closest forecast is Calgary / Springbank Airport, 6.0 nm (11.1 km) W. Retrieved 2020-01-21 00:00 UTC (2 hours ago):

TAF CYBW 202339Z 2100/2105 31008KT P6SM BKN140 BKN220 RMK FCST BASED ON AUTO OBS NXT FCST WILL BE ISSUED AT 211245Z